sensor_id;sensor_type;location;lat;lon;timestamp;pressure;altitude;pressure_sealevel;temperature;humidity
6506;BME280;3286;49.858;8.768;2022-11-20T00:00:53;98781.53;;;4.78;61.77
6506;BME280;3286;49.858;8.768;2022-11-20T00:03:20;98766.84;;;5.19;60.04
6506;BME280;3286;49.858;8.768;2022-11-20T00:05:49;98753.69;;;5.10;60.46
6506;BME280;3286;49.858;8.768;2022-11-20T00:08:19;98771.59;;;4.93;60.21
6506;BME280;3286;49.858;8.768;2022-11-20T00:10:48;98767.31;;;4.92;60.87
6506;BME280;3286;49.858;8.768;2022-11-20T00:13:17;98763.78;;;4.82;60.68
6506;BME280;3286;49.858;8.768;2022-11-20T00:15:45;98762.75;;;5.05;59.93
6506;BME280;3286;49.858;8.768;2022-11-20T00:18:14;98762.91;;;4.60;61.66
6506;BME280;3286;49.858;8.768;2022-11-20T00:20:42;98759.69;;;5.00;60.49
6506;BME280;3286;49.858;8.768;2022-11-20T00:23:09;98750.91;;;4.90;60.51
6506;BME280;3286;49.858;8.768;2022-11-20T00:25:35;98756.03;;;4.36;60.77
6506;BME280;3286;49.858;8.768;2022-11-20T00:28:04;98759.25;;;4.84;60.79
6506;BME280;3286;49.858;8.768;2022-11-20T00:30:32;98752.81;;;4.88;60.04
6506;BME280;3286;49.858;8.768;2022-11-20T00:33:02;98758.47;;;4.60;61.56
6506;BME280;3286;49.858;8.768;2022-11-20T00:35:31;98754.03;;;5.38;58.94
6506;BME280;3286;49.858;8.768;2022-11-20T00:37:58;98756.81;;;5.03;59.73
6506;BME280;3286;49.858;8.768;2022-11-20T00:40:26;98758.84;;;5.00;60.25
6506;BME280;3286;49.858;8.768;2022-11-20T00:42:55;98762.56;;;4.86;60.39
6506;BME280;3286;49.858;8.768;2022-11-20T00:45:25;98757.25;;;4.32;61.95
6506;BME280;3286;49.858;8.768;2022-11-20T00:47:52;98760.06;;;4.52;60.87
6506;BME280;3286;49.858;8.768;2022-11-20T00:50:22;98756.63;;;4.84;60.45
6506;BME280;3286;49.858;8.768;2022-11-20T00:52:48;98756.56;;;4.74;61.18
6506;BME280;3286;49.858;8.768;2022-11-20T00:55:17;98749.44;;;4.64;60.87
6506;BME280;3286;49.858;8.768;2022-11-20T00:57:44;98749.22;;;4.89;60.47
6506;BME280;3286;49.858;8.768;2022-11-20T01:00:11;98747.72;;;4.86;60.54
6506;BME280;3286;49.858;8.768;2022-11-20T01:02:42;98739.78;;;5.30;59.19
6506;BME280;3286;49.858;8.768;2022-11-20T01:05:09;98740.22;;;4.82;60.66
6506;BME280;3286;49.858;8.768;2022-11-20T01:07:37;98747.56;;;4.88;60.98
6506;BME280;3286;49.858;8.768;2022-11-20T01:10:04;98747.06;;;4.73;61.53
6506;BME280;3286;49.858;8.768;2022-11-20T01:12:31;98739.94;;;4.96;60.66
6506;BME280;3286;49.858;8.768;2022-11-20T01:15:00;98744.88;;;5.11;60.34
6506;BME280;3286;49.858;8.768;2022-11-20T01:17:30;98754.16;;;4.82;61.10
6506;BME280;3286;49.858;8.768;2022-11-20T01:19:59;98742.94;;;5.13;59.75
6506;BME280;3286;49.858;8.768;2022-11-20T01:22:26;98742.53;;;4.75;61.71
6506;BME280;3286;49.858;8.768;2022-11-20T01:24:54;98743.00;;;5.01;60.91
6506;BME280;3286;49.858;8.768;2022-11-20T01:27:20;98748.50;;;4.98;60.90
6506;BME280;3286;49.858;8.768;2022-11-20T01:29:50;98749.28;;;4.77;61.22
6506;BME280;3286;49.858;8.768;2022-11-20T01:32:16;98756.47;;;4.64;61.41
6506;BME280;3286;49.858;8.768;2022-11-20T01:34:43;98751.44;;;4.72;61.28
6506;BME280;3286;49.858;8.768;2022-11-20T01:37:09;98744.22;;;4.97;60.92
6506;BME280;3286;49.858;8.768;2022-11-20T01:39:38;98741.22;;;5.02;60.85
6506;BME280;3286;49.858;8.768;2022-11-20T01:42:07;98738.13;;;4.97;61.09
6506;BME280;3286;49.858;8.768;2022-11-20T01:44:56;98736.13;;;4.89;60.78
6506;BME280;3286;49.858;8.768;2022-11-20T01:47:27;98740.81;;;4.41;62.26
6506;BME280;3286;49.858;8.768;2022-11-20T01:49:56;98734.22;;;4.70;62.41
6506;BME280;3286;49.858;8.768;2022-11-20T01:52:30;98735.84;;;4.82;61.16
6506;BME280;3286;49.858;8.768;2022-11-20T01:55:01;98734.03;;;4.83;61.63
6506;BME280;3286;49.858;8.768;2022-11-20T01:57:38;98728.34;;;5.10;59.94
6506;BME280;3286;49.858;8.768;2022-11-20T02:00:08;98728.25;;;5.43;59.71
6506;BME280;3286;49.858;8.768;2022-11-20T02:02:36;98716.63;;;4.93;60.09
6506;BME280;3286;49.858;8.768;2022-11-20T02:05:11;98731.06;;;5.08;60.45
6506;BME280;3286;49.858;8.768;2022-11-20T02:07:39;98728.00;;;5.03;60.99
6506;BME280;3286;49.858;8.768;2022-11-20T02:12:40;98727.38;;;4.78;62.16
6506;BME280;3286;49.858;8.768;2022-11-20T02:15:24;98720.66;;;4.97;61.83
6506;BME280;3286;49.858;8.768;2022-11-20T02:17:53;98731.66;;;4.79;62.36
6506;BME280;3286;49.858;8.768;2022-11-20T02:20:21;98721.66;;;5.27;60.96
6506;BME280;3286;49.858;8.768;2022-11-20T02:22:54;98730.38;;;5.28;60.16
6506;BME280;3286;49.858;8.768;2022-11-20T02:25:26;98724.44;;;5.04;61.65
6506;BME280;3286;49.858;8.768;2022-11-20T02:27:54;98712.94;;;5.17;60.96
6506;BME280;3286;49.858;8.768;2022-11-20T02:30:24;98715.78;;;4.92;61.51
6506;BME280;3286;49.858;8.768;2022-11-20T02:32:51;98717.72;;;4.90;61.75
6506;BME280;3286;49.858;8.768;2022-11-20T02:35:39;98711.19;;;5.06;60.90
6506;BME280;3286;49.858;8.768;2022-11-20T02:38:06;98716.91;;;5.11;60.51
6506;BME280;3286;49.858;8.768;2022-11-20T02:40:37;98716.84;;;5.01;60.78
6506;BME280;3286;49.858;8.768;2022-11-20T02:43:04;98714.91;;;5.03;60.95
6506;BME280;3286;49.858;8.768;2022-11-20T02:45:31;98710.56;;;5.35;60.35
6506;BME280;3286;49.858;8.768;2022-11-20T02:48:01;98712.63;;;5.31;60.47
6506;BME280;3286;49.858;8.768;2022-11-20T02:50:30;98714.22;;;5.22;60.29
6506;BME280;3286;49.858;8.768;2022-11-20T02:52:58;98704.00;;;5.41;59.83
6506;BME280;3286;49.858;8.768;2022-11-20T02:55:27;98705.75;;;5.40;59.62
6506;BME280;3286;49.858;8.768;2022-11-20T02:57:57;98705.91;;;5.39;59.91
6506;BME280;3286;49.858;8.768;2022-11-20T03:00:23;98710.75;;;5.22;60.23
6506;BME280;3286;49.858;8.768;2022-11-20T03:02:52;98713.06;;;5.36;59.43
6506;BME280;3286;49.858;8.768;2022-11-20T03:05:20;98707.63;;;5.07;60.81
6506;BME280;3286;49.858;8.768;2022-11-20T03:07:47;98711.44;;;5.03;61.36
6506;BME280;3286;49.858;8.768;2022-11-20T03:10:14;98705.59;;;5.11;60.20
6506;BME280;3286;49.858;8.768;2022-11-20T03:12:40;98713.00;;;5.27;60.11
6506;BME280;3286;49.858;8.768;2022-11-20T03:15:11;98716.94;;;5.21;60.91
6506;BME280;3286;49.858;8.768;2022-11-20T03:17:39;98717.59;;;5.34;60.29
6506;BME280;3286;49.858;8.768;2022-11-20T03:20:07;98718.94;;;5.07;61.57
6506;BME280;3286;49.858;8.768;2022-11-20T03:22:35;98718.34;;;5.25;61.03
6506;BME280;3286;49.858;8.768;2022-11-20T03:25:04;98712.84;;;5.28;61.32
6506;BME280;3286;49.858;8.768;2022-11-20T03:27:33;98717.13;;;5.50;60.00
6506;BME280;3286;49.858;8.768;2022-11-20T03:30:00;98714.31;;;5.00;61.97
6506;BME280;3286;49.858;8.768;2022-11-20T03:32:28;98710.75;;;5.43;61.00
6506;BME280;3286;49.858;8.768;2022-11-20T03:34:57;98714.47;;;5.19;61.37
6506;BME280;3286;49.858;8.768;2022-11-20T03:37:23;98705.72;;;5.30;61.26
6506;BME280;3286;49.858;8.768;2022-11-20T03:39:52;98704.44;;;5.46;60.91
6506;BME280;3286;49.858;8.768;2022-11-20T03:42:18;98702.56;;;5.58;59.72
6506;BME280;3286;49.858;8.768;2022-11-20T03:45:05;98706.28;;;5.34;61.25
6506;BME280;3286;49.858;8.768;2022-11-20T03:47:33;98711.66;;;5.32;61.26
6506;BME280;3286;49.858;8.768;2022-11-20T03:50:03;98703.72;;;5.44;61.34
6506;BME280;3286;49.858;8.768;2022-11-20T03:52:30;98702.59;;;5.68;60.24
6506;BME280;3286;49.858;8.768;2022-11-20T03:54:58;98706.97;;;5.57;60.83
6506;BME280;3286;49.858;8.768;2022-11-20T03:57:25;98711.59;;;5.22;61.98
6506;BME280;3286;49.858;8.768;2022-11-20T03:59:51;98710.06;;;5.20;61.62
6506;BME280;3286;49.858;8.768;2022-11-20T04:02:21;98709.03;;;4.90;62.65
6506;BME280;3286;49.858;8.768;2022-11-20T04:04:52;98709.81;;;4.69;63.62
6506;BME280;3286;49.858;8.768;2022-11-20T04:07:20;98708.22;;;3.79;67.73
6506;BME280;3286;49.858;8.768;2022-11-20T04:09:50;98702.25;;;4.87;63.52
6506;BME280;3286;49.858;8.768;2022-11-20T04:12:19;98707.72;;;3.85;66.65
6506;BME280;3286;49.858;8.768;2022-11-20T04:14:48;98714.69;;;4.30;65.64
6506;BME280;3286;49.858;8.768;2022-11-20T04:17:21;98707.50;;;4.55;64.67
6506;BME280;3286;49.858;8.768;2022-11-20T04:19:50;98700.16;;;5.24;63.06
6506;BME280;3286;49.858;8.768;2022-11-20T04:22:20;98702.78;;;4.81;63.27
6506;BME280;3286;49.858;8.768;2022-11-20T04:24:48;98706.22;;;4.49;65.56
6506;BME280;3286;49.858;8.768;2022-11-20T04:27:20;98690.31;;;5.16;62.94
6506;BME280;3286;49.858;8.768;2022-11-20T04:29:48;98697.00;;;4.66;64.28
6506;BME280;3286;49.858;8.768;2022-11-20T04:32:20;98697.94;;;4.21;65.25
6506;BME280;3286;49.858;8.768;2022-11-20T04:34:48;98687.63;;;4.85;63.67
6506;BME280;3286;49.858;8.768;2022-11-20T04:37:15;98687.06;;;4.48;65.51
6506;BME280;3286;49.858;8.768;2022-11-20T04:39:42;98677.81;;;5.19;63.11
6506;BME280;3286;49.858;8.768;2022-11-20T04:42:09;98679.41;;;5.32;61.95
6506;BME280;3286;49.858;8.768;2022-11-20T04:44:56;98674.63;;;5.16;63.36
6506;BME280;3286;49.858;8.768;2022-11-20T04:47:23;98673.41;;;5.20;62.56
6506;BME280;3286;49.858;8.768;2022-11-20T04:49:51;98660.78;;;5.35;62.46
6506;BME280;3286;49.858;8.768;2022-11-20T04:52:19;98666.16;;;5.64;61.84
6506;BME280;3286;49.858;8.768;2022-11-20T04:54:48;98673.09;;;5.75;61.58
6506;BME280;3286;49.858;8.768;2022-11-20T04:57:18;98673.69;;;5.48;62.52
6506;BME280;3286;49.858;8.768;2022-11-20T04:59:47;98672.09;;;5.57;62.17
6506;BME280;3286;49.858;8.768;2022-11-20T05:02:17;98674.84;;;5.96;60.79
6506;BME280;3286;49.858;8.768;2022-11-20T05:04:47;98680.38;;;5.10;63.39
6506;BME280;3286;49.858;8.768;2022-11-20T05:07:18;98677.56;;;5.22;62.45
6506;BME280;3286;49.858;8.768;2022-11-20T05:09:47;98675.56;;;5.36;62.97
6506;BME280;3286;49.858;8.768;2022-11-20T05:12:19;98677.53;;;5.44;62.25
6506;BME280;3286;49.858;8.768;2022-11-20T05:14:46;98683.31;;;5.78;60.75
6506;BME280;3286;49.858;8.768;2022-11-20T05:17:13;98676.56;;;5.76;61.48
6506;BME280;3286;49.858;8.768;2022-11-20T05:19:42;98675.19;;;5.41;62.24
6506;BME280;3286;49.858;8.768;2022-11-20T05:22:09;98671.13;;;5.68;61.70
6506;BME280;3286;49.858;8.768;2022-11-20T05:24:39;98675.06;;;5.83;61.28
6506;BME280;3286;49.858;8.768;2022-11-20T05:27:09;98676.16;;;5.80;61.63
6506;BME280;3286;49.858;8.768;2022-11-20T05:29:37;98671.41;;;5.64;61.71
6506;BME280;3286;49.858;8.768;2022-11-20T05:32:06;98667.97;;;5.64;61.67
6506;BME280;3286;49.858;8.768;2022-11-20T05:34:35;98666.69;;;5.58;62.08
6506;BME280;3286;49.858;8.768;2022-11-20T05:37:02;98651.94;;;5.98;61.07
6506;BME280;3286;49.858;8.768;2022-11-20T05:39:31;98656.31;;;5.88;60.83
6506;BME280;3286;49.858;8.768;2022-11-20T05:42:00;98663.25;;;5.58;61.88
6506;BME280;3286;49.858;8.768;2022-11-20T05:44:45;98662.38;;;5.47;62.40
6506;BME280;3286;49.858;8.768;2022-11-20T05:47:13;98657.34;;;5.65;61.93
6506;BME280;3286;49.858;8.768;2022-11-20T05:49:43;98655.78;;;5.53;62.46
6506;BME280;3286;49.858;8.768;2022-11-20T05:52:10;98656.16;;;5.79;61.75
6506;BME280;3286;49.858;8.768;2022-11-20T05:54:36;98661.84;;;5.22;63.01
6506;BME280;3286;49.858;8.768;2022-11-20T05:57:07;98651.06;;;5.88;61.51
6506;BME280;3286;49.858;8.768;2022-11-20T05:59:33;98648.91;;;5.93;61.54
6506;BME280;3286;49.858;8.768;2022-11-20T06:02:00;98652.34;;;5.93;61.35
6506;BME280;3286;49.858;8.768;2022-11-20T06:04:28;98640.25;;;5.71;62.58
6506;BME280;3286;49.858;8.768;2022-11-20T06:06:55;98644.53;;;5.72;61.84
6506;BME280;3286;49.858;8.768;2022-11-20T06:09:22;98649.94;;;6.21;60.46
6506;BME280;3286;49.858;8.768;2022-11-20T06:11:48;98657.03;;;6.00;61.22
6506;BME280;3286;49.858;8.768;2022-11-20T06:14:16;98645.03;;;5.97;61.09
6506;BME280;3286;49.858;8.768;2022-11-20T06:16:45;98650.47;;;6.05;60.71
6506;BME280;3286;49.858;8.768;2022-11-20T06:19:12;98662.47;;;6.08;60.90
6506;BME280;3286;49.858;8.768;2022-11-20T06:21:41;98662.38;;;6.19;60.99
6506;BME280;3286;49.858;8.768;2022-11-20T06:24:11;98655.63;;;6.36;60.71
6506;BME280;3286;49.858;8.768;2022-11-20T06:26:39;98636.59;;;5.93;60.35
6506;BME280;3286;49.858;8.768;2022-11-20T06:29:06;98642.75;;;6.14;60.39
6506;BME280;3286;49.858;8.768;2022-11-20T06:31:39;98647.81;;;5.55;62.39
6506;BME280;3286;49.858;8.768;2022-11-20T06:34:08;98652.84;;;5.77;61.38
6506;BME280;3286;49.858;8.768;2022-11-20T06:36:35;98653.47;;;6.01;60.64
6506;BME280;3286;49.858;8.768;2022-11-20T06:39:04;98650.56;;;5.94;61.08
6506;BME280;3286;49.858;8.768;2022-11-20T06:41:31;98665.59;;;5.92;61.27
6506;BME280;3286;49.858;8.768;2022-11-20T06:44:05;98668.69;;;6.17;60.70
6506;BME280;3286;49.858;8.768;2022-11-20T06:46:31;98670.25;;;5.88;61.50
6506;BME280;3286;49.858;8.768;2022-11-20T06:48:59;98672.50;;;5.93;60.77
6506;BME280;3286;49.858;8.768;2022-11-20T06:51:26;98673.94;;;5.45;61.89
6506;BME280;3286;49.858;8.768;2022-11-20T06:53:53;98670.63;;;6.15;60.39
6506;BME280;3286;49.858;8.768;2022-11-20T06:56:19;98669.97;;;6.22;59.75
6506;BME280;3286;49.858;8.768;2022-11-20T06:58:46;98674.88;;;6.06;60.50
6506;BME280;3286;49.858;8.768;2022-11-20T07:01:14;98667.28;;;6.03;61.36
6506;BME280;3286;49.858;8.768;2022-11-20T07:03:42;98668.13;;;6.03;60.91
6506;BME280;3286;49.858;8.768;2022-11-20T07:06:12;98670.84;;;5.92;61.02
6506;BME280;3286;49.858;8.768;2022-11-20T07:08:38;98672.25;;;6.06;60.87
6506;BME280;3286;49.858;8.768;2022-11-20T07:11:06;98679.84;;;6.09;60.97
6506;BME280;3286;49.858;8.768;2022-11-20T07:13:35;98678.97;;;5.99;61.02
6506;BME280;3286;49.858;8.768;2022-11-20T07:16:04;98677.72;;;5.93;61.30
6506;BME280;3286;49.858;8.768;2022-11-20T07:18:31;98681.06;;;5.95;61.04
6506;BME280;3286;49.858;8.768;2022-11-20T07:21:01;98670.91;;;6.12;60.09
6506;BME280;3286;49.858;8.768;2022-11-20T07:23:29;98686.56;;;5.92;61.07
6506;BME280;3286;49.858;8.768;2022-11-20T07:25:55;98686.09;;;6.18;60.76
6506;BME280;3286;49.858;8.768;2022-11-20T07:28:22;98691.41;;;6.57;59.14
6506;BME280;3286;49.858;8.768;2022-11-20T07:30:50;98685.69;;;6.22;59.86
6506;BME280;3286;49.858;8.768;2022-11-20T07:33:16;98692.75;;;5.91;61.31
6506;BME280;3286;49.858;8.768;2022-11-20T07:35:43;98688.53;;;5.69;61.70
6506;BME280;3286;49.858;8.768;2022-11-20T07:38:10;98683.75;;;6.15;60.77
6506;BME280;3286;49.858;8.768;2022-11-20T07:40:41;98685.28;;;5.86;60.76
6506;BME280;3286;49.858;8.768;2022-11-20T07:43:10;98688.41;;;6.11;60.78
6506;BME280;3286;49.858;8.768;2022-11-20T07:45:37;98680.22;;;5.94;60.26
6506;BME280;3286;49.858;8.768;2022-11-20T07:48:04;98682.47;;;5.68;61.11
6506;BME280;3286;49.858;8.768;2022-11-20T07:50:38;98680.53;;;5.70;61.66
6506;BME280;3286;49.858;8.768;2022-11-20T07:53:05;98689.03;;;5.93;61.03
6506;BME280;3286;49.858;8.768;2022-11-20T07:55:33;98690.09;;;5.81;60.97
6506;BME280;3286;49.858;8.768;2022-11-20T07:58:01;98693.66;;;5.70;62.12
6506;BME280;3286;49.858;8.768;2022-11-20T08:00:29;98697.75;;;5.63;61.83
6506;BME280;3286;49.858;8.768;2022-11-20T08:02:56;98701.63;;;5.38;62.51
6506;BME280;3286;49.858;8.768;2022-11-20T08:05:23;98709.91;;;5.64;61.56
6506;BME280;3286;49.858;8.768;2022-11-20T08:07:51;98713.22;;;5.66;61.58
6506;BME280;3286;49.858;8.768;2022-11-20T08:10:20;98710.28;;;6.21;60.19
6506;BME280;3286;49.858;8.768;2022-11-20T08:12:48;98714.25;;;5.85;61.07
6506;BME280;3286;49.858;8.768;2022-11-20T08:15:35;98719.41;;;5.65;61.78
6506;BME280;3286;49.858;8.768;2022-11-20T08:18:03;98716.66;;;5.98;60.62
6506;BME280;3286;49.858;8.768;2022-11-20T08:20:31;98718.63;;;6.76;58.71
6506;BME280;3286;49.858;8.768;2022-11-20T08:23:00;98724.34;;;5.89;61.36
6506;BME280;3286;49.858;8.768;2022-11-20T08:25:28;98724.19;;;6.12;60.04
6506;BME280;3286;49.858;8.768;2022-11-20T08:27:57;98728.03;;;6.08;60.55
6506;BME280;3286;49.858;8.768;2022-11-20T08:30:27;98725.16;;;5.80;61.44
6506;BME280;3286;49.858;8.768;2022-11-20T08:33:00;98728.75;;;6.20;61.05
6506;BME280;3286;49.858;8.768;2022-11-20T08:35:29;98727.78;;;5.90;61.95
6506;BME280;3286;49.858;8.768;2022-11-20T08:38:00;98731.38;;;5.89;61.78
6506;BME280;3286;49.858;8.768;2022-11-20T08:40:27;98727.50;;;6.24;61.13
6506;BME280;3286;49.858;8.768;2022-11-20T08:43:11;98727.53;;;6.34;60.97
6506;BME280;3286;49.858;8.768;2022-11-20T08:45:37;98725.06;;;6.42;60.66
6506;BME280;3286;49.858;8.768;2022-11-20T08:48:07;98727.16;;;6.58;60.28
6506;BME280;3286;49.858;8.768;2022-11-20T08:50:34;98734.06;;;6.59;60.37
6506;BME280;3286;49.858;8.768;2022-11-20T08:53:05;98730.69;;;6.18;61.59
6506;BME280;3286;49.858;8.768;2022-11-20T08:55:32;98736.22;;;5.93;61.78
6506;BME280;3286;49.858;8.768;2022-11-20T08:58:04;98730.91;;;6.56;61.05
6506;BME280;3286;49.858;8.768;2022-11-20T09:00:31;98733.53;;;6.75;60.32
6506;BME280;3286;49.858;8.768;2022-11-20T09:02:58;98725.16;;;7.59;58.08
6506;BME280;3286;49.858;8.768;2022-11-20T09:05:27;98724.97;;;7.13;59.64
6506;BME280;3286;49.858;8.768;2022-11-20T09:07:55;98719.75;;;7.60;58.64
6506;BME280;3286;49.858;8.768;2022-11-20T09:10:22;98720.34;;;7.44;59.86
6506;BME280;3286;49.858;8.768;2022-11-20T09:12:49;98721.41;;;7.61;59.61
6506;BME280;3286;49.858;8.768;2022-11-20T09:15:16;98716.38;;;8.34;56.53
6506;BME280;3286;49.858;8.768;2022-11-20T09:17:50;98722.38;;;8.26;56.91
6506;BME280;3286;49.858;8.768;2022-11-20T09:20:17;98725.69;;;7.62;58.68
6506;BME280;3286;49.858;8.768;2022-11-20T09:22:45;98728.19;;;7.64;58.31
6506;BME280;3286;49.858;8.768;2022-11-20T09:25:12;98731.22;;;7.69;58.35
6506;BME280;3286;49.858;8.768;2022-11-20T09:27:38;98728.66;;;7.87;57.35
6506;BME280;3286;49.858;8.768;2022-11-20T09:30:07;98732.38;;;7.57;58.11
6506;BME280;3286;49.858;8.768;2022-11-20T09:32:34;98735.22;;;7.73;58.47
6506;BME280;3286;49.858;8.768;2022-11-20T09:35:00;98732.09;;;7.50;59.23
6506;BME280;3286;49.858;8.768;2022-11-20T09:37:27;98734.44;;;7.53;58.65
6506;BME280;3286;49.858;8.768;2022-11-20T09:39:55;98734.72;;;7.50;59.23
6506;BME280;3286;49.858;8.768;2022-11-20T09:42:31;98734.03;;;7.48;59.86
6506;BME280;3286;49.858;8.768;2022-11-20T09:48:06;98740.47;;;7.73;59.21
6506;BME280;3286;49.858;8.768;2022-11-20T09:50:43;98741.63;;;7.51;60.09
6506;BME280;3286;49.858;8.768;2022-11-20T09:53:19;98734.88;;;7.96;59.11
6506;BME280;3286;49.858;8.768;2022-11-20T09:55:48;98736.88;;;7.74;59.46
6506;BME280;3286;49.858;8.768;2022-11-20T09:58:24;98736.31;;;7.71;60.77
6506;BME280;3286;49.858;8.768;2022-11-20T10:00:56;98729.69;;;7.66;60.73
6506;BME280;3286;49.858;8.768;2022-11-20T10:03:37;98725.13;;;7.68;60.02
6506;BME280;3286;49.858;8.768;2022-11-20T10:06:10;98725.31;;;7.47;59.45
6506;BME280;3286;49.858;8.768;2022-11-20T10:08:41;98721.34;;;7.81;59.05
6506;BME280;3286;49.858;8.768;2022-11-20T10:11:14;98727.16;;;7.37;59.39
6506;BME280;3286;49.858;8.768;2022-11-20T10:13:52;98730.63;;;7.28;60.27
6506;BME280;3286;49.858;8.768;2022-11-20T10:16:28;98725.59;;;7.54;60.14
6506;BME280;3286;49.858;8.768;2022-11-20T10:19:09;98719.84;;;8.06;58.69
6506;BME280;3286;49.858;8.768;2022-11-20T10:21:47;98722.13;;;7.53;60.45
6506;BME280;3286;49.858;8.768;2022-11-20T10:24:44;98704.84;;;7.51;59.08
6506;BME280;3286;49.858;8.768;2022-11-20T10:30:19;98711.94;;;7.41;60.41
6506;BME280;3286;49.858;8.768;2022-11-20T10:32:50;98710.09;;;7.51;60.31
6506;BME280;3286;49.858;8.768;2022-11-20T10:35:21;98719.03;;;7.68;59.72
6506;BME280;3286;49.858;8.768;2022-11-20T10:37:55;98708.63;;;7.76;59.42
6506;BME280;3286;49.858;8.768;2022-11-20T10:40:29;98711.00;;;7.69;60.57
6506;BME280;3286;49.858;8.768;2022-11-20T10:43:01;98706.25;;;7.83;59.61
6506;BME280;3286;49.858;8.768;2022-11-20T10:45:36;98702.06;;;7.52;60.28
6506;BME280;3286;49.858;8.768;2022-11-20T10:48:11;98698.13;;;7.66;59.50
6506;BME280;3286;49.858;8.768;2022-11-20T10:50:44;98700.25;;;7.63;59.45
6506;BME280;3286;49.858;8.768;2022-11-20T10:53:21;98700.00;;;7.46;60.63
6506;BME280;3286;49.858;8.768;2022-11-20T10:55:56;98690.41;;;7.65;59.33
6506;BME280;3286;49.858;8.768;2022-11-20T10:58:33;98697.25;;;7.38;60.22
6506;BME280;3286;49.858;8.768;2022-11-20T11:01:03;98701.22;;;7.62;59.57
6506;BME280;3286;49.858;8.768;2022-11-20T11:03:31;98691.75;;;7.79;59.23
6506;BME280;3286;49.858;8.768;2022-11-20T11:06:03;98697.16;;;7.67;59.16
6506;BME280;3286;49.858;8.768;2022-11-20T11:08:37;98693.63;;;7.59;59.49
6506;BME280;3286;49.858;8.768;2022-11-20T11:11:15;98688.25;;;7.88;58.47
6506;BME280;3286;49.858;8.768;2022-11-20T11:13:46;98692.50;;;7.51;59.53
6506;BME280;3286;49.858;8.768;2022-11-20T11:16:21;98685.47;;;7.52;60.15
6506;BME280;3286;49.858;8.768;2022-11-20T11:18:48;98682.00;;;6.94;60.96
6506;BME280;3286;49.858;8.768;2022-11-20T11:21:21;98675.09;;;6.63;62.77
6506;BME280;3286;49.858;8.768;2022-11-20T11:23:57;98672.53;;;7.31;60.77
6506;BME280;3286;49.858;8.768;2022-11-20T11:26:25;98660.94;;;7.61;59.75
6506;BME280;3286;49.858;8.768;2022-11-20T11:28:55;98663.47;;;7.53;59.79
6506;BME280;3286;49.858;8.768;2022-11-20T11:31:23;98650.97;;;7.65;59.69
6506;BME280;3286;49.858;8.768;2022-11-20T11:33:50;98650.09;;;8.02;58.73
6506;BME280;3286;49.858;8.768;2022-11-20T11:36:19;98644.94;;;8.10;58.74
6506;BME280;3286;49.858;8.768;2022-11-20T11:38:50;98649.31;;;7.92;59.34
6506;BME280;3286;49.858;8.768;2022-11-20T11:41:22;98656.72;;;8.06;59.06
6506;BME280;3286;49.858;8.768;2022-11-20T11:43:52;98652.59;;;8.22;59.06
6506;BME280;3286;49.858;8.768;2022-11-20T11:46:41;98649.66;;;6.93;61.65
6506;BME280;3286;49.858;8.768;2022-11-20T11:49:16;98661.31;;;7.38;61.07
6506;BME280;3286;49.858;8.768;2022-11-20T11:52:00;98655.50;;;7.73;60.41
6506;BME280;3286;49.858;8.768;2022-11-20T11:54:34;98646.75;;;7.44;60.25
6506;BME280;3286;49.858;8.768;2022-11-20T11:57:07;98645.25;;;6.15;64.68
6506;BME280;3286;49.858;8.768;2022-11-20T11:59:47;98650.72;;;7.58;60.80
6506;BME280;3286;49.858;8.768;2022-11-20T12:02:27;98644.88;;;7.92;59.56
6506;BME280;3286;49.858;8.768;2022-11-20T12:05:00;98636.94;;;8.02;59.71
6506;BME280;3286;49.858;8.768;2022-11-20T12:07:38;98622.44;;;7.98;59.10
6506;BME280;3286;49.858;8.768;2022-11-20T12:10:15;98633.44;;;7.83;59.68
6506;BME280;3286;49.858;8.768;2022-11-20T12:12:45;98632.94;;;6.94;62.10
6506;BME280;3286;49.858;8.768;2022-11-20T12:15:22;98630.94;;;7.64;60.46
6506;BME280;3286;49.858;8.768;2022-11-20T12:17:50;98632.34;;;7.86;60.31
6506;BME280;3286;49.858;8.768;2022-11-20T12:20:17;98644.28;;;7.71;60.84
6506;BME280;3286;49.858;8.768;2022-11-20T12:22:52;98639.22;;;7.59;60.36
6506;BME280;3286;49.858;8.768;2022-11-20T12:25:24;98628.75;;;8.05;60.16
6506;BME280;3286;49.858;8.768;2022-11-20T12:28:05;98632.34;;;7.01;62.86
6506;BME280;3286;49.858;8.768;2022-11-20T12:30:42;98637.78;;;7.47;62.70
6506;BME280;3286;49.858;8.768;2022-11-20T12:33:40;98630.06;;;7.35;61.66
6506;BME280;3286;49.858;8.768;2022-11-20T12:36:19;98631.56;;;7.76;60.89
6506;BME280;3286;49.858;8.768;2022-11-20T12:38:58;98628.59;;;8.07;60.68
6506;BME280;3286;49.858;8.768;2022-11-20T12:41:45;98612.28;;;8.76;58.89
6506;BME280;3286;49.858;8.768;2022-11-20T12:44:46;98602.31;;;8.61;58.99
6506;BME280;3286;49.858;8.768;2022-11-20T12:47:49;98604.66;;;8.64;59.24
6506;BME280;3286;49.858;8.768;2022-11-20T12:50:30;98594.16;;;8.73;58.30
6506;BME280;3286;49.858;8.768;2022-11-20T12:53:04;98605.91;;;8.24;60.06
6506;BME280;3286;49.858;8.768;2022-11-20T12:55:36;98612.16;;;8.41;58.98
6506;BME280;3286;49.858;8.768;2022-11-20T12:58:12;98606.75;;;8.43;59.14
6506;BME280;3286;49.858;8.768;2022-11-20T13:00:47;98612.94;;;8.51;59.48
6506;BME280;3286;49.858;8.768;2022-11-20T13:03:39;98604.91;;;8.53;59.33
6506;BME280;3286;49.858;8.768;2022-11-20T13:06:16;98603.88;;;8.72;58.48
6506;BME280;3286;49.858;8.768;2022-11-20T13:08:48;98596.25;;;8.61;58.59
6506;BME280;3286;49.858;8.768;2022-11-20T13:11:21;98601.25;;;8.36;60.55
6506;BME280;3286;49.858;8.768;2022-11-20T13:14:04;98594.38;;;8.53;59.30
6506;BME280;3286;49.858;8.768;2022-11-20T13:16:38;98597.91;;;8.62;59.35
6506;BME280;3286;49.858;8.768;2022-11-20T13:19:10;98592.00;;;8.68;59.79
6506;BME280;3286;49.858;8.768;2022-11-20T13:21:40;98590.63;;;8.82;60.01
6506;BME280;3286;49.858;8.768;2022-11-20T13:24:20;98586.13;;;9.01;57.89
6506;BME280;3286;49.858;8.768;2022-11-20T13:27:16;98588.00;;;8.82;59.43
6506;BME280;3286;49.858;8.768;2022-11-20T13:29:47;98573.28;;;8.97;59.35
6506;BME280;3286;49.858;8.768;2022-11-20T13:32:24;98565.38;;;8.97;59.62
6506;BME280;3286;49.858;8.768;2022-11-20T13:34:53;98565.06;;;9.01;59.48
6506;BME280;3286;49.858;8.768;2022-11-20T13:37:28;98554.44;;;9.19;58.82
6506;BME280;3286;49.858;8.768;2022-11-20T13:40:06;98554.84;;;8.97;59.85
6506;BME280;3286;49.858;8.768;2022-11-20T13:42:39;98548.66;;;9.15;59.43
6506;BME280;3286;49.858;8.768;2022-11-20T13:45:10;98551.59;;;9.12;59.51
6506;BME280;3286;49.858;8.768;2022-11-20T13:47:47;98553.19;;;9.31;59.23
6506;BME280;3286;49.858;8.768;2022-11-20T13:50:14;98544.22;;;9.59;57.29
6506;BME280;3286;49.858;8.768;2022-11-20T13:52:48;98548.75;;;9.32;58.93
6506;BME280;3286;49.858;8.768;2022-11-20T13:55:24;98545.94;;;8.98;58.96
6506;BME280;3286;49.858;8.768;2022-11-20T13:58:10;98550.34;;;8.90;59.54
6506;BME280;3286;49.858;8.768;2022-11-20T14:00:44;98540.41;;;9.10;59.84